Airfield :
LOGIN :

Register | Disclaimer

   EN    FR    IT 

 










Legend :    VFR   Marginal VFR   IFR   Intensive IFR   Very Intensive IFR
Visi :
Ceiling :
>= 8 km
>= 3000ft
5 to 8 km
1000 to 3000 ft
1500m to 5 km
500 to 1000 ft
800 to 1500m
200 to 500 ft
< 800m
< 200 ft
Symbols :   Thunderstorms  Fog  Heavy snow  Heavy precipitations  Wind > 20 kt
SIGMETs :     Misc.  Thunderstorms  Icing  Turbulence  Mountain Waves  Volcanic Ashes






- Airport Elevation : 154 ft
- IATA code : SZZ


EPSC - Szczecin Goleniow

CURRENT METAR :
  • 250400Z VRB01KT CAVOK 15/12 Q1020

EXPIRED METARs :
  • 250330Z VRB01KT CAVOK 12/11 Q1020
  • 250300Z VRB01KT CAVOK 11/10 Q1020
  • 250230Z VRB01KT CAVOK 11/10 Q1020
  • 250200Z VRB01KT CAVOK 12/11 Q1020
  • 250130Z VRB01KT CAVOK 13/12 Q1020
  • 250100Z VRB01KT CAVOK 13/11 Q1020
  • 250030Z VRB01KT CAVOK 13/12 Q1020
  • 250000Z VRB01KT CAVOK 14/12 Q1021
  • 242330Z VRB01KT CAVOK 14/12 Q1021

TAF TAF EPSC
Valid from the 25 at 00:00 until the 26 at 00:00 UTC


242330Z 2500/2524 VRB03KT CAVOK
BECMG 2510/2513 11010KT



MET'MAP, your aeronautical weather chart ! - Copyright ORBIFLY December 2007 - Disclaimer

ORBIFLY MET'MAP TEAM :

Programming & Development : Alexandra Zaïnal
Original concept : Baudouin d'Aumeries
Technical & hardware support : Manuel Goepfert
Assistance : Marc-Olivier Méhu




SOURCES & CREDITS :

   NOAA